sensor_id;sensor_type;location;lat;lon;timestamp;P1;durP1;ratioP1;P2;durP2;ratioP2
12886;SDS011;6511;49.746;6.094;2022-10-16T07:27:13;4.80;;;3.00;;
12886;SDS011;6511;49.746;6.094;2022-10-16T07:29:39;6.07;;;3.73;;
12886;SDS011;6511;49.746;6.094;2022-10-16T07:32:05;5.97;;;3.70;;
12886;SDS011;6511;49.746;6.094;2022-10-16T07:34:30;5.20;;;3.20;;
12886;SDS011;6511;49.746;6.094;2022-10-16T07:36:56;6.97;;;3.40;;
12886;SDS011;6511;49.746;6.094;2022-10-16T07:39:21;5.43;;;3.40;;
12886;SDS011;6511;49.746;6.094;2022-10-16T07:41:47;4.70;;;2.78;;
12886;SDS011;6511;49.746;6.094;2022-10-16T07:44:12;3.85;;;2.67;;
12886;SDS011;6511;49.746;6.094;2022-10-16T07:46:38;4.60;;;2.90;;
12886;SDS011;6511;49.746;6.094;2022-10-16T07:49:03;6.40;;;3.47;;
12886;SDS011;6511;49.746;6.094;2022-10-16T07:51:30;7.27;;;4.00;;
12886;SDS011;6511;49.746;6.094;2022-10-16T07:53:55;7.15;;;4.60;;
12886;SDS011;6511;49.746;6.094;2022-10-16T07:56:21;7.90;;;5.37;;
12886;SDS011;6511;49.746;6.094;2022-10-16T07:58:47;7.95;;;5.20;;
12886;SDS011;6511;49.746;6.094;2022-10-16T08:01:15;6.25;;;5.35;;
12886;SDS011;6511;49.746;6.094;2022-10-16T08:03:45;7.35;;;4.95;;
12886;SDS011;6511;49.746;6.094;2022-10-16T08:06:12;7.43;;;4.78;;
12886;SDS011;6511;49.746;6.094;2022-10-16T08:08:38;11.00;;;5.57;;
12886;SDS011;6511;49.746;6.094;2022-10-16T08:11:04;7.30;;;5.82;;
12886;SDS011;6511;49.746;6.094;2022-10-16T08:13:30;5.97;;;5.28;;
12886;SDS011;6511;49.746;6.094;2022-10-16T08:15:55;7.68;;;5.80;;
12886;SDS011;6511;49.746;6.094;2022-10-16T08:18:21;5.43;;;4.20;;
12886;SDS011;6511;49.746;6.094;2022-10-16T08:20:47;5.40;;;3.75;;
12886;SDS011;6511;49.746;6.094;2022-10-16T08:23:12;4.47;;;3.85;;
12886;SDS011;6511;49.746;6.094;2022-10-16T08:25:39;7.00;;;3.70;;
12886;SDS011;6511;49.746;6.094;2022-10-16T08:28:06;4.05;;;3.13;;
12886;SDS011;6511;49.746;6.094;2022-10-16T08:30:33;3.40;;;3.10;;
12886;SDS011;6511;49.746;6.094;2022-10-16T08:32:59;4.20;;;3.03;;
12886;SDS011;6511;49.746;6.094;2022-10-16T08:35:25;3.13;;;2.70;;
12886;SDS011;6511;49.746;6.094;2022-10-16T08:37:50;4.50;;;3.10;;
12886;SDS011;6511;49.746;6.094;2022-10-16T08:40:22;3.60;;;2.80;;
12886;SDS011;6511;49.746;6.094;2022-10-16T08:48:36;4.40;;;3.38;;
12886;SDS011;6511;49.746;6.094;2022-10-16T08:51:09;3.65;;;3.35;;
12886;SDS011;6511;49.746;6.094;2022-10-16T08:53:45;4.43;;;3.10;;
12886;SDS011;6511;49.746;6.094;2022-10-16T08:56:19;4.85;;;3.35;;
12886;SDS011;6511;49.746;6.094;2022-10-16T08:58:45;5.07;;;3.10;;
12886;SDS011;6511;49.746;6.094;2022-10-16T09:01:13;5.07;;;3.28;;
12886;SDS011;6511;49.746;6.094;2022-10-16T09:09:13;3.80;;;2.70;;
12886;SDS011;6511;49.746;6.094;2022-10-16T09:11:51;3.92;;;2.60;;
12886;SDS011;6511;49.746;6.094;2022-10-16T09:17:22;5.47;;;3.13;;
12886;SDS011;6511;49.746;6.094;2022-10-16T09:23:15;3.03;;;2.70;;
12886;SDS011;6511;49.746;6.094;2022-10-16T09:25:43;2.58;;;2.30;;
12886;SDS011;6511;49.746;6.094;2022-10-16T09:28:12;3.45;;;2.08;;
12886;SDS011;6511;49.746;6.094;2022-10-16T09:30:38;2.22;;;2.00;;
12886;SDS011;6511;49.746;6.094;2022-10-16T09:33:04;2.97;;;2.00;;
12886;SDS011;6511;49.746;6.094;2022-10-16T09:35:43;2.80;;;1.85;;
12886;SDS011;6511;49.746;6.094;2022-10-16T09:38:25;3.45;;;1.70;;
12886;SDS011;6511;49.746;6.094;2022-10-16T09:40:56;2.35;;;1.60;;
12886;SDS011;6511;49.746;6.094;2022-10-16T09:43:42;1.80;;;1.50;;
12886;SDS011;6511;49.746;6.094;2022-10-16T09:46:31;2.53;;;1.60;;
12886;SDS011;6511;49.746;6.094;2022-10-16T09:49:02;3.20;;;1.63;;
12886;SDS011;6511;49.746;6.094;2022-10-16T09:51:43;2.20;;;1.42;;
12886;SDS011;6511;49.746;6.094;2022-10-16T09:54:17;1.70;;;1.30;;
12886;SDS011;6511;49.746;6.094;2022-10-16T09:56:43;2.05;;;1.20;;
12886;SDS011;6511;49.746;6.094;2022-10-16T10:01:47;1.50;;;1.30;;
12886;SDS011;6511;49.746;6.094;2022-10-16T10:04:18;1.30;;;1.20;;
12886;SDS011;6511;49.746;6.094;2022-10-16T10:06:46;1.70;;;1.30;;
12886;SDS011;6511;49.746;6.094;2022-10-16T10:09:24;2.72;;;1.20;;
12886;SDS011;6511;49.746;6.094;2022-10-16T10:11:51;1.60;;;1.20;;
12886;SDS011;6511;49.746;6.094;2022-10-16T10:19:41;3.03;;;1.33;;
12886;SDS011;6511;49.746;6.094;2022-10-16T10:22:19;2.35;;;1.30;;
12886;SDS011;6511;49.746;6.094;2022-10-16T10:30:42;1.30;;;0.90;;
12886;SDS011;6511;49.746;6.094;2022-10-16T10:33:24;1.45;;;1.00;;
12886;SDS011;6511;49.746;6.094;2022-10-16T10:56:04;2.53;;;0.95;;
12886;SDS011;6511;49.746;6.094;2022-10-16T10:59:36;1.65;;;0.90;;
12886;SDS011;6511;49.746;6.094;2022-10-16T11:01:32;2.40;;;1.17;;
12886;SDS011;6511;49.746;6.094;2022-10-16T11:04:28;2.30;;;1.05;;
12886;SDS011;6511;49.746;6.094;2022-10-16T11:07:17;2.00;;;1.10;;
12886;SDS011;6511;49.746;6.094;2022-10-16T11:09:53;1.63;;;1.00;;
12886;SDS011;6511;49.746;6.094;2022-10-16T11:12:27;1.70;;;1.00;;
12886;SDS011;6511;49.746;6.094;2022-10-16T11:17:51;3.10;;;1.20;;
12886;SDS011;6511;49.746;6.094;2022-10-16T11:21:19;1.67;;;0.80;;
12886;SDS011;6511;49.746;6.094;2022-10-16T11:25:57;1.40;;;0.80;;
12886;SDS011;6511;49.746;6.094;2022-10-16T11:28:28;1.75;;;0.82;;
12886;SDS011;6511;49.746;6.094;2022-10-16T11:31:08;1.00;;;0.90;;
12886;SDS011;6511;49.746;6.094;2022-10-16T11:33:46;2.42;;;1.10;;
12886;SDS011;6511;49.746;6.094;2022-10-16T11:39:43;1.30;;;1.20;;
12886;SDS011;6511;49.746;6.094;2022-10-16T11:50:57;2.53;;;1.60;;
12886;SDS011;6511;49.746;6.094;2022-10-16T11:56:17;3.25;;;1.95;;
12886;SDS011;6511;49.746;6.094;2022-10-16T11:59:00;2.55;;;1.73;;
12886;SDS011;6511;49.746;6.094;2022-10-16T12:01:47;3.45;;;2.00;;
12886;SDS011;6511;49.746;6.094;2022-10-16T12:04:19;2.43;;;2.23;;
12886;SDS011;6511;49.746;6.094;2022-10-16T12:07:05;2.70;;;2.30;;
12886;SDS011;6511;49.746;6.094;2022-10-16T12:09:34;2.83;;;2.60;;
12886;SDS011;6511;49.746;6.094;2022-10-16T12:12:03;4.25;;;2.58;;
12886;SDS011;6511;49.746;6.094;2022-10-16T12:17:00;3.30;;;2.50;;
12886;SDS011;6511;49.746;6.094;2022-10-16T12:19:28;5.20;;;2.92;;
12886;SDS011;6511;49.746;6.094;2022-10-16T12:21:58;3.03;;;2.58;;
12886;SDS011;6511;49.746;6.094;2022-10-16T12:26:51;3.63;;;3.00;;
12886;SDS011;6511;49.746;6.094;2022-10-16T12:31:46;5.30;;;3.40;;
12886;SDS011;6511;49.746;6.094;2022-10-16T12:34:21;4.40;;;3.00;;
12886;SDS011;6511;49.746;6.094;2022-10-16T12:36:53;4.20;;;2.80;;
12886;SDS011;6511;49.746;6.094;2022-10-16T12:39:21;3.15;;;2.78;;
12886;SDS011;6511;49.746;6.094;2022-10-16T12:41:48;3.03;;;2.72;;
12886;SDS011;6511;49.746;6.094;2022-10-16T12:44:27;3.03;;;2.72;;
12886;SDS011;6511;49.746;6.094;2022-10-16T12:46:58;4.10;;;2.95;;
12886;SDS011;6511;49.746;6.094;2022-10-16T12:49:32;3.55;;;2.80;;
12886;SDS011;6511;49.746;6.094;2022-10-16T12:52:01;4.53;;;2.80;;
12886;SDS011;6511;49.746;6.094;2022-10-16T12:54:31;3.88;;;2.50;;
12886;SDS011;6511;49.746;6.094;2022-10-16T12:57:09;5.25;;;2.80;;
12886;SDS011;6511;49.746;6.094;2022-10-16T13:02:39;3.90;;;2.58;;
12886;SDS011;6511;49.746;6.094;2022-10-16T13:13:45;2.65;;;2.15;;
12886;SDS011;6511;49.746;6.094;2022-10-16T13:16:24;2.40;;;2.20;;
12886;SDS011;6511;49.746;6.094;2022-10-16T13:27:51;3.97;;;2.90;;
12886;SDS011;6511;49.746;6.094;2022-10-16T13:30:25;5.43;;;3.50;;
12886;SDS011;6511;49.746;6.094;2022-10-16T13:35:58;3.30;;;2.40;;
12886;SDS011;6511;49.746;6.094;2022-10-16T13:40:56;3.17;;;2.60;;
12886;SDS011;6511;49.746;6.094;2022-10-16T13:43:28;3.03;;;2.70;;
12886;SDS011;6511;49.746;6.094;2022-10-16T13:46:12;3.42;;;2.80;;
12886;SDS011;6511;49.746;6.094;2022-10-16T13:48:40;3.05;;;2.70;;
12886;SDS011;6511;49.746;6.094;2022-10-16T13:51:14;3.53;;;2.90;;
12886;SDS011;6511;49.746;6.094;2022-10-16T13:53:41;3.03;;;2.78;;
12886;SDS011;6511;49.746;6.094;2022-10-16T13:56:15;4.10;;;2.88;;
12886;SDS011;6511;49.746;6.094;2022-10-16T14:01:59;5.78;;;4.00;;
12886;SDS011;6511;49.746;6.094;2022-10-16T14:04:40;9.70;;;6.60;;
12886;SDS011;6511;49.746;6.094;2022-10-16T14:07:11;4.70;;;4.30;;
12886;SDS011;6511;49.746;6.094;2022-10-16T14:09:49;4.18;;;3.10;;
12886;SDS011;6511;49.746;6.094;2022-10-16T14:12:16;3.20;;;2.90;;
12886;SDS011;6511;49.746;6.094;2022-10-16T14:14:43;3.35;;;3.05;;
12886;SDS011;6511;49.746;6.094;2022-10-16T14:17:26;5.30;;;3.30;;
12886;SDS011;6511;49.746;6.094;2022-10-16T14:19:55;3.70;;;3.35;;
12886;SDS011;6511;49.746;6.094;2022-10-16T14:22:41;3.10;;;2.83;;
12886;SDS011;6511;49.746;6.094;2022-10-16T14:27:59;4.00;;;3.10;;
12886;SDS011;6511;49.746;6.094;2022-10-16T14:30:52;3.33;;;2.80;;
12886;SDS011;6511;49.746;6.094;2022-10-16T14:33:20;4.17;;;3.00;;
12886;SDS011;6511;49.746;6.094;2022-10-16T14:35:57;3.90;;;3.20;;
12886;SDS011;6511;49.746;6.094;2022-10-16T14:38:27;3.97;;;3.00;;
12886;SDS011;6511;49.746;6.094;2022-10-16T14:40:54;4.93;;;2.90;;
12886;SDS011;6511;49.746;6.094;2022-10-16T14:43:24;4.80;;;3.53;;
12886;SDS011;6511;49.746;6.094;2022-10-16T14:46:03;6.38;;;3.70;;
12886;SDS011;6511;49.746;6.094;2022-10-16T14:49:20;5.30;;;3.92;;
12886;SDS011;6511;49.746;6.094;2022-10-16T14:51:29;4.45;;;3.97;;
12886;SDS011;6511;49.746;6.094;2022-10-16T14:53:55;5.27;;;4.63;;
12886;SDS011;6511;49.746;6.094;2022-10-16T14:56:22;5.60;;;4.80;;
12886;SDS011;6511;49.746;6.094;2022-10-16T14:58:50;6.13;;;5.50;;
12886;SDS011;6511;49.746;6.094;2022-10-16T15:01:16;6.88;;;4.70;;
12886;SDS011;6511;49.746;6.094;2022-10-16T15:03:43;5.25;;;4.45;;
12886;SDS011;6511;49.746;6.094;2022-10-16T15:06:12;7.07;;;4.80;;
12886;SDS011;6511;49.746;6.094;2022-10-16T15:08:39;5.78;;;4.90;;
12886;SDS011;6511;49.746;6.094;2022-10-16T15:11:05;8.10;;;4.90;;
12886;SDS011;6511;49.746;6.094;2022-10-16T15:13:37;5.95;;;4.80;;
12886;SDS011;6511;49.746;6.094;2022-10-16T15:16:02;7.43;;;4.70;;
12886;SDS011;6511;49.746;6.094;2022-10-16T15:18:28;5.73;;;4.50;;
12886;SDS011;6511;49.746;6.094;2022-10-16T15:20:54;5.87;;;4.20;;
12886;SDS011;6511;49.746;6.094;2022-10-16T15:23:20;5.03;;;4.40;;
12886;SDS011;6511;49.746;6.094;2022-10-16T15:28:17;4.40;;;4.00;;
12886;SDS011;6511;49.746;6.094;2022-10-16T15:30:43;5.30;;;4.38;;
12886;SDS011;6511;49.746;6.094;2022-10-16T15:33:17;5.13;;;3.85;;
12886;SDS011;6511;49.746;6.094;2022-10-16T15:35:51;6.30;;;4.60;;
12886;SDS011;6511;49.746;6.094;2022-10-16T15:38:18;5.30;;;4.60;;
12886;SDS011;6511;49.746;6.094;2022-10-16T15:40:45;5.93;;;4.63;;
12886;SDS011;6511;49.746;6.094;2022-10-16T15:43:12;7.70;;;4.67;;
12886;SDS011;6511;49.746;6.094;2022-10-16T15:45:37;6.03;;;4.60;;
12886;SDS011;6511;49.746;6.094;2022-10-16T15:48:03;6.93;;;4.65;;
12886;SDS011;6511;49.746;6.094;2022-10-16T15:50:29;7.77;;;4.90;;
12886;SDS011;6511;49.746;6.094;2022-10-16T15:52:56;5.30;;;4.60;;
12886;SDS011;6511;49.746;6.094;2022-10-16T15:55:22;7.90;;;5.00;;
12886;SDS011;6511;49.746;6.094;2022-10-16T15:57:47;6.30;;;5.20;;
12886;SDS011;6511;49.746;6.094;2022-10-16T16:00:14;5.82;;;5.22;;
12886;SDS011;6511;49.746;6.094;2022-10-16T16:02:42;6.80;;;5.30;;
12886;SDS011;6511;49.746;6.094;2022-10-16T16:05:09;6.43;;;5.23;;
12886;SDS011;6511;49.746;6.094;2022-10-16T16:07:36;5.80;;;5.20;;
12886;SDS011;6511;49.746;6.094;2022-10-16T16:10:04;7.68;;;5.70;;
12886;SDS011;6511;49.746;6.094;2022-10-16T16:12:32;6.45;;;5.60;;
12886;SDS011;6511;49.746;6.094;2022-10-16T16:14:58;6.68;;;5.50;;
12886;SDS011;6511;49.746;6.094;2022-10-16T16:17:24;5.90;;;5.38;;
12886;SDS011;6511;49.746;6.094;2022-10-16T16:19:49;8.57;;;5.70;;
12886;SDS011;6511;49.746;6.094;2022-10-16T16:22:15;5.80;;;5.20;;
12886;SDS011;6511;49.746;6.094;2022-10-16T16:24:41;6.45;;;5.60;;
12886;SDS011;6511;49.746;6.094;2022-10-16T16:27:10;6.63;;;5.55;;
12886;SDS011;6511;49.746;6.094;2022-10-16T16:29:39;7.85;;;5.60;;
12886;SDS011;6511;49.746;6.094;2022-10-16T16:32:05;8.87;;;5.80;;
12886;SDS011;6511;49.746;6.094;2022-10-16T16:34:31;6.80;;;6.10;;
12886;SDS011;6511;49.746;6.094;2022-10-16T16:36:56;7.72;;;6.22;;
12886;SDS011;6511;49.746;6.094;2022-10-16T16:39:22;8.20;;;6.03;;
12886;SDS011;6511;49.746;6.094;2022-10-16T16:41:48;7.47;;;5.43;;
12886;SDS011;6511;49.746;6.094;2022-10-16T16:44:15;8.32;;;5.75;;
12886;SDS011;6511;49.746;6.094;2022-10-16T16:46:42;7.80;;;6.00;;
12886;SDS011;6511;49.746;6.094;2022-10-16T16:49:09;7.93;;;6.13;;
12886;SDS011;6511;49.746;6.094;2022-10-16T16:51:35;9.80;;;6.77;;
12886;SDS011;6511;49.746;6.094;2022-10-16T16:54:01;9.30;;;6.70;;
12886;SDS011;6511;49.746;6.094;2022-10-16T16:56:27;7.80;;;6.50;;
12886;SDS011;6511;49.746;6.094;2022-10-16T16:58:53;8.80;;;6.90;;
12886;SDS011;6511;49.746;6.094;2022-10-16T17:01:20;10.65;;;7.95;;
12886;SDS011;6511;49.746;6.094;2022-10-16T17:03:48;10.40;;;7.43;;
12886;SDS011;6511;49.746;6.094;2022-10-16T17:06:17;8.60;;;7.70;;
12886;SDS011;6511;49.746;6.094;2022-10-16T17:08:43;9.18;;;7.50;;
12886;SDS011;6511;49.746;6.094;2022-10-16T17:11:13;11.57;;;8.23;;
12886;SDS011;6511;49.746;6.094;2022-10-16T17:13:40;10.68;;;8.65;;
12886;SDS011;6511;49.746;6.094;2022-10-16T17:16:06;11.52;;;9.20;;
12886;SDS011;6511;49.746;6.094;2022-10-16T17:18:33;13.32;;;10.60;;
12886;SDS011;6511;49.746;6.094;2022-10-16T17:21:00;11.55;;;10.20;;
12886;SDS011;6511;49.746;6.094;2022-10-16T17:23:26;15.45;;;10.88;;
12886;SDS011;6511;49.746;6.094;2022-10-16T17:25:52;13.87;;;10.40;;
12886;SDS011;6511;49.746;6.094;2022-10-16T17:28:18;13.60;;;10.93;;
12886;SDS011;6511;49.746;6.094;2022-10-16T17:30:44;12.93;;;10.93;;
12886;SDS011;6511;49.746;6.094;2022-10-16T17:33:10;15.37;;;11.43;;
12886;SDS011;6511;49.746;6.094;2022-10-16T17:35:41;13.13;;;11.30;;
12886;SDS011;6511;49.746;6.094;2022-10-16T17:38:08;13.52;;;12.05;;
12886;SDS011;6511;49.746;6.094;2022-10-16T17:40:34;13.57;;;12.18;;
12886;SDS011;6511;49.746;6.094;2022-10-16T17:43:01;14.93;;;12.87;;
12886;SDS011;6511;49.746;6.094;2022-10-16T17:45:27;13.40;;;12.02;;
12886;SDS011;6511;49.746;6.094;2022-10-16T17:47:53;14.20;;;12.70;;
12886;SDS011;6511;49.746;6.094;2022-10-16T17:50:19;15.32;;;13.18;;
12886;SDS011;6511;49.746;6.094;2022-10-16T17:52:44;18.90;;;14.55;;
12886;SDS011;6511;49.746;6.094;2022-10-16T17:55:10;16.73;;;13.70;;
12886;SDS011;6511;49.746;6.094;2022-10-16T17:57:36;16.20;;;13.60;;
12886;SDS011;6511;49.746;6.094;2022-10-16T18:00:03;16.27;;;12.77;;
12886;SDS011;6511;49.746;6.094;2022-10-16T18:02:30;17.52;;;14.02;;
12886;SDS011;6511;49.746;6.094;2022-10-16T18:04:55;16.88;;;13.98;;
12886;SDS011;6511;49.746;6.094;2022-10-16T18:07:21;20.20;;;15.80;;
12886;SDS011;6511;49.746;6.094;2022-10-16T18:09:47;20.77;;;15.67;;
12886;SDS011;6511;49.746;6.094;2022-10-16T18:12:13;20.48;;;16.83;;
12886;SDS011;6511;49.746;6.094;2022-10-16T18:14:39;18.95;;;15.68;;
12886;SDS011;6511;49.746;6.094;2022-10-16T18:17:05;20.35;;;15.70;;
12886;SDS011;6511;49.746;6.094;2022-10-16T18:19:31;20.20;;;16.60;;
12886;SDS011;6511;49.746;6.094;2022-10-16T18:21:57;23.75;;;18.33;;
12886;SDS011;6511;49.746;6.094;2022-10-16T18:24:23;21.85;;;16.88;;
12886;SDS011;6511;49.746;6.094;2022-10-16T18:26:50;23.90;;;19.15;;
12886;SDS011;6511;49.746;6.094;2022-10-16T18:29:20;22.43;;;18.07;;
12886;SDS011;6511;49.746;6.094;2022-10-16T18:31:47;25.80;;;20.40;;
12886;SDS011;6511;49.746;6.094;2022-10-16T18:34:13;26.00;;;19.85;;
12886;SDS011;6511;49.746;6.094;2022-10-16T18:36:39;30.25;;;23.48;;
12886;SDS011;6511;49.746;6.094;2022-10-16T18:39:07;28.53;;;21.13;;
12886;SDS011;6511;49.746;6.094;2022-10-16T18:41:34;27.35;;;20.52;;
12886;SDS011;6511;49.746;6.094;2022-10-16T18:44:04;27.02;;;22.08;;
12886;SDS011;6511;49.746;6.094;2022-10-16T18:46:31;529.47;;;23.57;;
12886;SDS011;6511;49.746;6.094;2022-10-16T18:48:56;155.70;;;16.08;;
12886;SDS011;6511;49.746;6.094;2022-10-16T18:51:34;49.00;;;15.70;;
12886;SDS011;6511;49.746;6.094;2022-10-16T18:54:03;50.80;;;14.73;;
12886;SDS011;6511;49.746;6.094;2022-10-16T18:56:31;21.60;;;15.45;;
12886;SDS011;6511;49.746;6.094;2022-10-16T18:58:57;22.42;;;16.40;;
12886;SDS011;6511;49.746;6.094;2022-10-16T19:01:25;23.10;;;16.05;;
12886;SDS011;6511;49.746;6.094;2022-10-16T19:03:53;22.58;;;15.98;;
12886;SDS011;6511;49.746;6.094;2022-10-16T19:06:27;23.77;;;17.17;;
12886;SDS011;6511;49.746;6.094;2022-10-16T19:08:54;103.57;;;16.58;;
12886;SDS011;6511;49.746;6.094;2022-10-16T19:11:21;371.75;;;20.30;;
12886;SDS011;6511;49.746;6.094;2022-10-16T19:13:49;294.90;;;22.77;;
12886;SDS011;6511;49.746;6.094;2022-10-16T19:16:16;221.60;;;21.40;;
12886;SDS011;6511;49.746;6.094;2022-10-16T19:18:47;235.02;;;22.50;;
12886;SDS011;6511;49.746;6.094;2022-10-16T19:21:14;172.57;;;25.42;;
12886;SDS011;6511;49.746;6.094;2022-10-16T19:23:40;116.82;;;18.95;;
12886;SDS011;6511;49.746;6.094;2022-10-16T19:26:13;88.53;;;19.43;;
12886;SDS011;6511;49.746;6.094;2022-10-16T19:28:40;103.20;;;27.13;;
12886;SDS011;6511;49.746;6.094;2022-10-16T19:31:06;169.82;;;29.17;;
12886;SDS011;6511;49.746;6.094;2022-10-16T19:33:35;94.33;;;27.17;;
12886;SDS011;6511;49.746;6.094;2022-10-16T19:38:44;101.55;;;27.23;;
12886;SDS011;6511;49.746;6.094;2022-10-16T19:41:11;132.80;;;28.75;;
12886;SDS011;6511;49.746;6.094;2022-10-16T19:43:41;156.23;;;34.97;;
12886;SDS011;6511;49.746;6.094;2022-10-16T19:46:08;240.68;;;30.15;;
12886;SDS011;6511;49.746;6.094;2022-10-16T19:48:36;216.88;;;29.17;;
12886;SDS011;6511;49.746;6.094;2022-10-16T19:51:04;171.45;;;28.65;;
12886;SDS011;6511;49.746;6.094;2022-10-16T19:53:30;214.57;;;30.23;;
12886;SDS011;6511;49.746;6.094;2022-10-16T19:55:57;188.30;;;28.50;;
12886;SDS011;6511;49.746;6.094;2022-10-16T19:58:23;147.43;;;29.60;;
12886;SDS011;6511;49.746;6.094;2022-10-16T20:00:48;58.97;;;27.27;;
12886;SDS011;6511;49.746;6.094;2022-10-16T20:03:14;181.95;;;35.17;;
12886;SDS011;6511;49.746;6.094;2022-10-16T20:05:51;78.15;;;30.25;;
12886;SDS011;6511;49.746;6.094;2022-10-16T20:08:17;47.50;;;27.75;;
12886;SDS011;6511;49.746;6.094;2022-10-16T20:10:46;50.80;;;29.27;;
12886;SDS011;6511;49.746;6.094;2022-10-16T20:13:16;54.13;;;30.05;;
12886;SDS011;6511;49.746;6.094;2022-10-16T20:15:42;58.37;;;31.50;;
12886;SDS011;6511;49.746;6.094;2022-10-16T20:18:07;138.10;;;34.10;;
12886;SDS011;6511;49.746;6.094;2022-10-16T20:20:39;207.48;;;31.63;;
12886;SDS011;6511;49.746;6.094;2022-10-16T20:23:06;596.60;;;36.50;;
12886;SDS011;6511;49.746;6.094;2022-10-16T20:25:36;319.67;;;29.95;;
12886;SDS011;6511;49.746;6.094;2022-10-16T20:28:03;256.20;;;22.35;;
12886;SDS011;6511;49.746;6.094;2022-10-16T20:30:33;420.40;;;29.33;;
12886;SDS011;6511;49.746;6.094;2022-10-16T20:33:03;99.78;;;24.90;;
12886;SDS011;6511;49.746;6.094;2022-10-16T20:35:35;48.43;;;24.37;;
12886;SDS011;6511;49.746;6.094;2022-10-16T20:38:02;37.47;;;23.80;;
12886;SDS011;6511;49.746;6.094;2022-10-16T20:40:28;88.20;;;22.25;;
12886;SDS011;6511;49.746;6.094;2022-10-16T20:42:53;129.07;;;21.88;;
12886;SDS011;6511;49.746;6.094;2022-10-16T20:45:19;88.17;;;23.07;;
12886;SDS011;6511;49.746;6.094;2022-10-16T20:47:44;89.90;;;22.30;;
12886;SDS011;6511;49.746;6.094;2022-10-16T20:50:10;151.27;;;23.50;;
12886;SDS011;6511;49.746;6.094;2022-10-16T20:52:37;74.73;;;22.33;;
12886;SDS011;6511;49.746;6.094;2022-10-16T20:55:03;30.48;;;22.00;;
12886;SDS011;6511;49.746;6.094;2022-10-16T20:57:29;31.73;;;22.33;;
12886;SDS011;6511;49.746;6.094;2022-10-16T20:59:54;35.40;;;22.80;;
12886;SDS011;6511;49.746;6.094;2022-10-16T21:02:21;35.05;;;23.67;;
12886;SDS011;6511;49.746;6.094;2022-10-16T21:04:47;32.17;;;22.85;;
12886;SDS011;6511;49.746;6.094;2022-10-16T21:07:13;34.97;;;26.20;;
12886;SDS011;6511;49.746;6.094;2022-10-16T21:09:39;59.35;;;30.65;;
12886;SDS011;6511;49.746;6.094;2022-10-16T21:12:05;55.03;;;32.27;;
12886;SDS011;6511;49.746;6.094;2022-10-16T21:14:30;88.47;;;31.70;;
12886;SDS011;6511;49.746;6.094;2022-10-16T21:16:56;122.28;;;30.73;;
12886;SDS011;6511;49.746;6.094;2022-10-16T21:19:22;196.27;;;29.58;;
12886;SDS011;6511;49.746;6.094;2022-10-16T21:21:47;175.80;;;19.23;;
12886;SDS011;6511;49.746;6.094;2022-10-16T21:24:15;99.13;;;16.90;;
12886;SDS011;6511;49.746;6.094;2022-10-16T21:26:41;127.10;;;23.07;;
12886;SDS011;6511;49.746;6.094;2022-10-16T21:29:07;106.88;;;20.98;;
12886;SDS011;6511;49.746;6.094;2022-10-16T21:31:33;85.87;;;20.03;;
12886;SDS011;6511;49.746;6.094;2022-10-16T21:33:59;102.57;;;21.75;;
12886;SDS011;6511;49.746;6.094;2022-10-16T21:36:26;66.32;;;24.00;;
12886;SDS011;6511;49.746;6.094;2022-10-16T21:38:53;46.90;;;23.27;;
12886;SDS011;6511;49.746;6.094;2022-10-16T21:41:23;50.00;;;24.30;;
12886;SDS011;6511;49.746;6.094;2022-10-16T21:43:51;51.60;;;24.85;;
12886;SDS011;6511;49.746;6.094;2022-10-16T21:46:19;65.88;;;25.40;;
12886;SDS011;6511;49.746;6.094;2022-10-16T21:48:46;46.25;;;23.73;;
12886;SDS011;6511;49.746;6.094;2022-10-16T21:51:12;49.07;;;23.03;;
12886;SDS011;6511;49.746;6.094;2022-10-16T21:53:38;57.80;;;27.02;;
12886;SDS011;6511;49.746;6.094;2022-10-16T21:56:04;48.53;;;26.05;;
12886;SDS011;6511;49.746;6.094;2022-10-16T21:58:42;62.00;;;29.00;;
12886;SDS011;6511;49.746;6.094;2022-10-16T22:01:16;176.65;;;28.48;;
12886;SDS011;6511;49.746;6.094;2022-10-16T22:03:44;241.60;;;20.75;;
12886;SDS011;6511;49.746;6.094;2022-10-16T22:06:11;81.17;;;18.53;;
12886;SDS011;6511;49.746;6.094;2022-10-16T22:08:38;90.70;;;23.23;;
12886;SDS011;6511;49.746;6.094;2022-10-16T22:11:05;71.43;;;25.05;;
12886;SDS011;6511;49.746;6.094;2022-10-16T22:13:33;53.30;;;24.45;;
12886;SDS011;6511;49.746;6.094;2022-10-16T22:15:59;82.70;;;26.40;;
12886;SDS011;6511;49.746;6.094;2022-10-16T22:18:25;117.70;;;30.27;;
12886;SDS011;6511;49.746;6.094;2022-10-16T22:20:51;217.98;;;34.00;;
12886;SDS011;6511;49.746;6.094;2022-10-16T22:23:17;199.23;;;30.65;;
12886;SDS011;6511;49.746;6.094;2022-10-16T22:25:43;89.40;;;26.33;;
12886;SDS011;6511;49.746;6.094;2022-10-16T22:28:08;97.07;;;27.37;;
12886;SDS011;6511;49.746;6.094;2022-10-16T22:30:34;81.70;;;28.67;;
12886;SDS011;6511;49.746;6.094;2022-10-16T22:33:01;113.35;;;31.52;;
12886;SDS011;6511;49.746;6.094;2022-10-16T22:35:27;84.63;;;29.10;;
12886;SDS011;6511;49.746;6.094;2022-10-16T22:37:52;102.70;;;29.05;;
12886;SDS011;6511;49.746;6.094;2022-10-16T22:40:18;64.87;;;28.87;;
12886;SDS011;6511;49.746;6.094;2022-10-16T22:42:44;56.57;;;30.20;;
12886;SDS011;6511;49.746;6.094;2022-10-16T22:45:09;49.10;;;31.27;;
12886;SDS011;6511;49.746;6.094;2022-10-16T22:47:35;103.67;;;26.87;;
12886;SDS011;6511;49.746;6.094;2022-10-16T22:50:03;41.05;;;25.58;;
12886;SDS011;6511;49.746;6.094;2022-10-16T22:52:30;40.83;;;26.30;;
12886;SDS011;6511;49.746;6.094;2022-10-16T22:54:56;46.07;;;28.77;;
12886;SDS011;6511;49.746;6.094;2022-10-16T22:57:21;46.22;;;27.60;;
12886;SDS011;6511;49.746;6.094;2022-10-16T22:59:47;314.40;;;30.00;;
12886;SDS011;6511;49.746;6.094;2022-10-16T23:02:13;454.73;;;28.57;;
12886;SDS011;6511;49.746;6.094;2022-10-16T23:04:39;309.25;;;26.23;;
12886;SDS011;6511;49.746;6.094;2022-10-16T23:07:04;148.33;;;24.27;;
12886;SDS011;6511;49.746;6.094;2022-10-16T23:09:30;169.87;;;27.17;;
12886;SDS011;6511;49.746;6.094;2022-10-16T23:11:55;132.53;;;26.13;;
12886;SDS011;6511;49.746;6.094;2022-10-16T23:14:21;93.53;;;25.65;;
12886;SDS011;6511;49.746;6.094;2022-10-16T23:16:47;106.83;;;28.93;;
12886;SDS011;6511;49.746;6.094;2022-10-16T23:19:13;107.07;;;30.40;;
12886;SDS011;6511;49.746;6.094;2022-10-16T23:21:39;38.90;;;26.38;;
12886;SDS011;6511;49.746;6.094;2022-10-16T23:24:05;55.17;;;28.03;;
12886;SDS011;6511;49.746;6.094;2022-10-16T23:26:32;35.72;;;25.33;;
12886;SDS011;6511;49.746;6.094;2022-10-16T23:28:59;339.85;;;31.80;;
12886;SDS011;6511;49.746;6.094;2022-10-16T23:31:25;175.37;;;28.93;;
12886;SDS011;6511;49.746;6.094;2022-10-16T23:33:52;136.70;;;25.17;;
12886;SDS011;6511;49.746;6.094;2022-10-16T23:36:20;121.13;;;24.85;;
12886;SDS011;6511;49.746;6.094;2022-10-16T23:38:46;85.85;;;22.90;;
12886;SDS011;6511;49.746;6.094;2022-10-16T23:41:12;77.35;;;24.63;;
12886;SDS011;6511;49.746;6.094;2022-10-16T23:43:39;70.20;;;24.38;;
12886;SDS011;6511;49.746;6.094;2022-10-16T23:46:05;61.23;;;24.27;;
12886;SDS011;6511;49.746;6.094;2022-10-16T23:48:32;75.17;;;24.80;;
12886;SDS011;6511;49.746;6.094;2022-10-16T23:50:58;73.32;;;26.63;;
12886;SDS011;6511;49.746;6.094;2022-10-16T23:53:24;53.42;;;26.10;;
12886;SDS011;6511;49.746;6.094;2022-10-16T23:55:49;60.00;;;30.40;;
12886;SDS011;6511;49.746;6.094;2022-10-16T23:58:15;54.83;;;27.20;;
